createdAt,value
2018-06-13T00:01:23.779Z,87.10
2018-06-13T00:03:52.246Z,87.10
2018-06-13T00:06:20.869Z,87.20
2018-06-13T00:08:49.417Z,87.20
2018-06-13T00:11:17.835Z,87.30
2018-06-13T00:13:46.369Z,87.40
2018-06-13T00:16:14.970Z,87.20
2018-06-13T00:18:43.385Z,87.20
2018-06-13T00:23:39.958Z,87.30
2018-06-13T00:26:08.430Z,87.60
2018-06-13T00:28:36.923Z,87.90
2018-06-13T00:33:33.514Z,88.60
2018-06-13T00:36:02.077Z,88.80
2018-06-13T00:38:30.574Z,88.80
2018-06-13T00:40:58.987Z,88.80
2018-06-13T00:43:27.575Z,88.80
2018-06-13T00:45:56.035Z,89.00
2018-06-13T00:48:24.466Z,89.10
2018-06-13T00:50:53.005Z,89.10
2018-06-13T00:53:21.486Z,89.00
2018-06-13T00:56:00.962Z,88.80
2018-06-13T00:58:29.397Z,88.60
2018-06-13T01:00:57.834Z,88.50
2018-06-13T01:03:26.323Z,88.30
2018-06-13T01:05:54.784Z,88.30
2018-06-13T01:08:23.330Z,88.20
2018-06-13T01:10:58.225Z,88.10
2018-06-13T01:13:27.362Z,88.10
2018-06-13T01:15:55.799Z,88.10
2018-06-13T01:18:24.261Z,88.00
2018-06-13T01:20:52.722Z,88.30
2018-06-13T01:23:21.171Z,88.50
2018-06-13T01:25:49.670Z,88.60
2018-06-13T01:28:18.101Z,88.60
2018-06-13T01:30:46.546Z,88.70
2018-06-13T01:33:15.150Z,88.70
2018-06-13T01:35:43.600Z,88.60
2018-06-13T01:38:12.070Z,88.50
2018-06-13T01:40:40.579Z,88.60
2018-06-13T01:43:09.011Z,88.70
2018-06-13T01:45:37.445Z,88.70
2018-06-13T01:48:05.976Z,88.90
2018-06-13T01:50:34.399Z,88.80
2018-06-13T01:53:02.811Z,89.20
2018-06-13T01:55:31.409Z,88.70
2018-06-13T01:57:59.822Z,88.70
2018-06-13T02:02:56.441Z,88.70
2018-06-13T02:05:24.850Z,88.60
2018-06-13T02:07:53.257Z,88.60
2018-06-13T02:10:21.736Z,88.60
2018-06-13T02:15:18.258Z,88.80
2018-06-13T02:17:46.879Z,88.90
2018-06-13T02:20:15.301Z,88.80
2018-06-13T02:22:43.722Z,88.90
2018-06-13T02:25:12.195Z,89.00
2018-06-13T02:27:40.633Z,89.00
2018-06-13T02:36:53.340Z,89.40
2018-06-13T02:39:21.946Z,89.90
2018-06-13T02:41:50.355Z,89.80
2018-06-13T02:44:18.847Z,90.00
2018-06-13T02:46:47.303Z,90.00
2018-06-13T02:49:15.852Z,90.10
2018-06-13T02:51:44.369Z,90.10
2018-06-13T02:54:12.803Z,90.10
2018-06-13T02:56:41.250Z,90.30
2018-06-13T02:59:09.842Z,90.40
2018-06-13T03:01:38.290Z,90.40
2018-06-13T03:04:06.745Z,90.40
2018-06-13T03:06:35.330Z,90.40
2018-06-13T03:09:05.358Z,90.40
2018-06-13T03:11:33.814Z,90.40
2018-06-13T03:14:02.314Z,90.40
2018-06-13T03:19:23.791Z,90.40
2018-06-13T03:21:52.226Z,90.40
2018-06-13T03:24:20.693Z,90.50
2018-06-13T03:26:49.170Z,90.60
2018-06-13T03:29:17.575Z,90.60
2018-06-13T03:31:45.992Z,90.70
2018-06-13T03:34:14.465Z,90.60
2018-06-13T03:36:42.888Z,90.60
2018-06-13T03:39:11.414Z,90.50
2018-06-13T03:41:39.926Z,90.50
2018-06-13T03:44:08.452Z,90.40
2018-06-13T03:46:36.970Z,90.40
2018-06-13T03:49:05.526Z,90.40
2018-06-13T03:51:33.970Z,90.30
2018-06-13T03:56:30.629Z,90.20
2018-06-13T03:58:59.049Z,90.00
2018-06-13T04:01:27.463Z,90.00
2018-06-13T04:03:56.036Z,89.80
2018-06-13T04:06:25.173Z,89.60
2018-06-13T04:08:53.605Z,89.60
2018-06-13T04:11:22.072Z,89.60
2018-06-13T04:13:50.602Z,89.50
2018-06-13T04:16:19.177Z,89.40
2018-06-13T04:18:47.646Z,89.20
2018-06-13T04:21:16.190Z,89.30
2018-06-13T04:23:44.646Z,89.20
2018-06-13T04:26:13.150Z,89.10
2018-06-13T04:28:41.590Z,89.20
2018-06-13T04:31:10.040Z,89.10
2018-06-13T04:33:38.671Z,88.80
2018-06-13T04:36:07.123Z,88.80
2018-06-13T04:38:35.546Z,88.80
2018-06-13T04:41:04.030Z,88.70
2018-06-13T04:43:32.706Z,88.70
2018-06-13T04:46:01.187Z,89.50
2018-06-13T04:48:29.654Z,88.60
2018-06-13T04:50:58.079Z,88.60
2018-06-13T04:53:26.509Z,88.40
2018-06-13T04:55:55.781Z,88.20
2018-06-13T04:58:24.286Z,88.10
2018-06-13T05:03:21.103Z,87.90
2018-06-13T05:05:49.656Z,87.80
2018-06-13T05:08:18.071Z,87.70
2018-06-13T05:13:14.595Z,87.70
2018-06-13T05:15:43.010Z,88.30
2018-06-13T05:18:11.538Z,87.10
2018-06-13T05:20:39.964Z,87.10
2018-06-13T05:23:08.483Z,87.00
2018-06-13T05:25:36.955Z,87.80
2018-06-13T05:28:05.438Z,87.20
2018-06-13T05:30:33.866Z,87.20
2018-06-13T05:33:02.377Z,87.30
2018-06-13T05:35:30.766Z,87.30
2018-06-13T05:37:59.297Z,87.30
2018-06-13T05:40:27.739Z,87.00
2018-06-13T05:42:56.382Z,86.80
2018-06-13T05:45:25.822Z,86.30
2018-06-13T05:47:54.299Z,85.80
2018-06-13T05:50:22.750Z,85.40
2018-06-13T05:52:51.158Z,84.90
2018-06-13T05:55:19.598Z,84.80
2018-06-13T05:57:48.134Z,84.40
2018-06-13T06:00:16.658Z,84.00
2018-06-13T06:02:45.138Z,83.70
2018-06-13T06:05:13.633Z,83.00
2018-06-13T06:07:42.171Z,82.70
2018-06-13T06:10:10.751Z,83.30
2018-06-13T06:12:39.183Z,83.50
2018-06-13T06:15:07.706Z,83.80
2018-06-13T06:17:36.241Z,84.00
2018-06-13T06:20:06.115Z,84.40
2018-06-13T06:22:34.986Z,85.70
2018-06-13T06:25:03.751Z,85.50
2018-06-13T06:27:32.174Z,86.60
2018-06-13T06:30:00.718Z,88.30
2018-06-13T06:32:29.209Z,89.90
2018-06-13T06:34:57.758Z,90.50
2018-06-13T06:37:26.186Z,91.50
2018-06-13T06:39:54.750Z,91.70
2018-06-13T06:42:23.330Z,91.90
2018-06-13T06:44:51.730Z,92.10
2018-06-13T06:47:20.307Z,92.10
2018-06-13T06:49:48.730Z,92.20
2018-06-13T06:52:17.260Z,92.40
2018-06-13T06:54:45.702Z,92.00
2018-06-13T06:57:14.120Z,92.20
2018-06-13T06:59:42.656Z,92.50
2018-06-13T07:02:11.110Z,92.90
2018-06-13T07:04:39.531Z,92.70
2018-06-13T07:07:08.058Z,92.80
2018-06-13T07:09:36.709Z,92.90
2018-06-13T07:12:05.148Z,92.60
2018-06-13T07:14:33.569Z,91.90
2018-06-13T07:17:02.110Z,91.60
2018-06-13T07:19:30.566Z,91.30
2018-06-13T07:21:59.018Z,90.90
2018-06-13T07:24:27.482Z,89.80
2018-06-13T07:26:55.919Z,87.80
2018-06-13T07:29:24.350Z,87.90
2018-06-13T07:31:52.959Z,88.80
2018-06-13T07:34:21.422Z,89.70
2018-06-13T07:36:49.859Z,90.30
2018-06-13T07:39:18.343Z,90.40
2018-06-13T07:41:46.795Z,91.00
2018-06-13T07:44:15.253Z,91.00
2018-06-13T07:46:44.734Z,91.70
2018-06-13T07:49:13.192Z,91.50
2018-06-13T07:51:41.943Z,91.90
2018-06-13T07:54:10.544Z,91.40
2018-06-13T07:56:38.988Z,91.80
2018-06-13T07:59:07.441Z,92.20
2018-06-13T08:01:35.945Z,92.60
2018-06-13T08:04:04.530Z,92.80
2018-06-13T08:08:02.176Z,93.20
2018-06-13T08:10:30.610Z,93.70
2018-06-13T08:12:59.050Z,93.70
2018-06-13T08:15:27.570Z,93.80
2018-06-13T08:17:56.001Z,94.00
2018-06-13T08:20:24.431Z,94.70
2018-06-13T08:22:52.993Z,95.00
2018-06-13T08:25:21.434Z,95.70
2018-06-13T08:27:50.792Z,95.90
2018-06-13T08:30:19.294Z,95.80
2018-06-13T08:32:47.698Z,95.70
2018-06-13T08:35:16.112Z,95.60
2018-06-13T08:37:44.646Z,95.80
2018-06-13T08:40:13.075Z,95.70
2018-06-13T08:42:41.527Z,95.60
2018-06-13T08:45:10.057Z,95.50
2018-06-13T08:47:38.470Z,95.50
2018-06-13T08:50:06.931Z,94.10
2018-06-13T08:52:35.426Z,94.20
2018-06-13T08:55:03.969Z,94.20
2018-06-13T08:57:32.438Z,93.60
2018-06-13T09:00:00.922Z,93.30
2018-06-13T09:02:29.466Z,94.10
2018-06-13T09:04:57.923Z,93.50
2018-06-13T09:07:26.475Z,90.90
2018-06-13T09:09:54.920Z,90.40
2018-06-13T09:12:23.382Z,89.30
2018-06-13T09:14:51.855Z,86.80
2018-06-13T09:17:20.293Z,85.70
2018-06-13T09:19:48.723Z,83.10
2018-06-13T09:22:17.202Z,83.00
2018-06-13T09:24:45.678Z,83.50
2018-06-13T09:27:14.305Z,82.70
2018-06-13T09:29:42.800Z,84.80
2018-06-13T09:32:11.316Z,79.70
2018-06-13T09:34:39.747Z,80.80
2018-06-13T09:37:08.327Z,81.60
2018-06-13T09:39:36.858Z,81.30
2018-06-13T09:42:05.460Z,79.90
2018-06-13T09:44:34.055Z,75.10
2018-06-13T09:47:06.907Z,73.60
2018-06-13T09:49:31.093Z,75.70
2018-06-13T09:51:59.594Z,76.90
2018-06-13T09:54:28.015Z,76.40
2018-06-13T09:56:56.446Z,75.30
2018-06-13T09:59:29.227Z,73.10
2018-06-13T10:04:31.192Z,72.80
2018-06-13T10:09:27.757Z,72.50
2018-06-13T10:11:56.264Z,72.50
2018-06-13T10:14:24.699Z,73.50
2018-06-13T10:16:53.210Z,74.00
2018-06-13T10:19:21.779Z,73.10
2018-06-13T10:21:50.271Z,74.00
2018-06-13T10:24:18.713Z,73.90
2018-06-13T10:26:47.191Z,73.80
2018-06-13T10:29:15.610Z,74.30
2018-06-13T10:34:12.191Z,73.10
2018-06-13T10:36:40.742Z,71.10
2018-06-13T10:39:09.185Z,69.70
2018-06-13T10:41:37.658Z,68.00
2018-06-13T10:44:06.333Z,68.50
2018-06-13T10:46:34.795Z,69.20
2018-06-13T10:49:03.278Z,68.00
2018-06-13T10:51:31.729Z,68.00
2018-06-13T10:54:00.187Z,66.10
2018-06-13T10:56:28.770Z,65.10
2018-06-13T10:58:57.183Z,64.60
2018-06-13T11:01:25.621Z,63.70
2018-06-13T11:03:54.262Z,62.00
2018-06-13T11:06:22.691Z,60.30
2018-06-13T11:08:51.094Z,61.60
2018-06-13T11:11:19.570Z,62.50
2018-06-13T11:13:48.122Z,62.50
2018-06-13T11:16:16.713Z,62.90
2018-06-13T11:18:45.302Z,63.30
2018-06-13T11:21:13.785Z,63.70
2018-06-13T11:23:42.210Z,64.60
2018-06-13T11:26:10.713Z,63.80
2018-06-13T11:28:39.143Z,64.10
2018-06-13T11:31:07.596Z,63.30
2018-06-13T11:33:36.144Z,63.40
2018-06-13T11:36:04.604Z,63.80
2018-06-13T11:38:33.035Z,62.80
2018-06-13T11:41:01.508Z,63.00
2018-06-13T11:43:29.959Z,62.80
2018-06-13T11:45:58.410Z,62.00
2018-06-13T11:48:26.864Z,62.90
2018-06-13T11:50:55.289Z,61.80
2018-06-13T11:53:23.714Z,60.80
2018-06-13T11:55:52.206Z,60.00
2018-06-13T11:58:20.770Z,59.50
2018-06-13T12:00:49.320Z,58.90
2018-06-13T12:03:17.808Z,58.30
2018-06-13T12:05:46.254Z,56.90
2018-06-13T12:08:14.683Z,56.40
2018-06-13T12:10:43.293Z,55.80
2018-06-13T12:13:11.741Z,55.00
2018-06-13T12:15:40.318Z,55.60
2018-06-13T12:18:08.794Z,55.00
2018-06-13T12:20:37.219Z,55.30
2018-06-13T12:23:05.882Z,55.40
2018-06-13T12:25:34.356Z,54.90
2018-06-13T12:28:02.785Z,54.60
2018-06-13T12:30:31.221Z,54.30
2018-06-13T12:32:59.757Z,55.30
2018-06-13T12:35:28.255Z,55.30
2018-06-13T12:44:40.851Z,53.50
2018-06-13T12:47:09.374Z,52.70
2018-06-13T12:49:38.027Z,53.40
2018-06-13T12:52:06.787Z,52.60
2018-06-13T12:54:35.195Z,52.60
2018-06-13T12:57:03.761Z,52.50
2018-06-13T12:59:32.487Z,51.50
2018-06-13T13:02:00.914Z,51.20
2018-06-13T13:04:29.442Z,51.70
2018-06-13T13:06:58.082Z,52.00
2018-06-13T13:09:26.522Z,51.60
2018-06-13T13:11:54.976Z,52.10
2018-06-13T13:14:23.458Z,51.80
2018-06-13T13:16:51.885Z,52.20
2018-06-13T13:19:20.346Z,51.80
2018-06-13T13:21:49.031Z,51.90
2018-06-13T13:24:17.555Z,51.80
2018-06-13T13:26:45.958Z,52.30
2018-06-13T13:29:14.402Z,52.20
2018-06-13T13:31:42.802Z,52.40
2018-06-13T13:34:11.321Z,51.60
2018-06-13T13:39:09.494Z,51.00
2018-06-13T13:41:38.696Z,51.40
2018-06-13T13:44:07.211Z,51.30
2018-06-13T13:46:35.875Z,51.20
2018-06-13T13:49:04.858Z,50.60
2018-06-13T13:51:33.305Z,50.60
2018-06-13T13:54:01.905Z,50.10
2018-06-13T13:56:30.267Z,50.20
2018-06-13T13:58:58.724Z,50.10
2018-06-13T14:01:27.267Z,49.70
2018-06-13T14:03:55.770Z,49.60
2018-06-13T14:06:24.241Z,49.70
2018-06-13T14:11:20.860Z,48.70
2018-06-13T14:13:49.479Z,48.80
2018-06-13T14:16:17.898Z,49.30
2018-06-13T14:18:46.330Z,49.70
2018-06-13T14:21:14.770Z,49.40
2018-06-13T14:23:43.942Z,50.20
2018-06-13T14:26:12.514Z,50.40
2018-06-13T14:28:41.126Z,51.10
2018-06-13T14:31:09.626Z,50.40
2018-06-13T14:33:38.086Z,49.00
2018-06-13T14:36:15.634Z,48.90
2018-06-13T14:38:44.115Z,48.90
2018-06-13T14:41:12.760Z,49.00
2018-06-13T14:43:41.253Z,48.30
2018-06-13T14:46:09.770Z,48.20
2018-06-13T14:48:38.236Z,47.80
2018-06-13T14:51:06.740Z,46.60
2018-06-13T14:53:35.197Z,48.30
2018-06-13T14:56:09.118Z,45.20
2018-06-13T14:58:37.569Z,45.40
2018-06-13T15:01:06.100Z,45.70
2018-06-13T15:03:34.654Z,46.20
2018-06-13T15:06:03.143Z,45.40
2018-06-13T15:08:31.590Z,44.70
2018-06-13T15:11:00.049Z,45.40
2018-06-13T15:13:28.646Z,44.40
2018-06-13T15:15:57.311Z,43.30
2018-06-13T15:18:25.802Z,43.40
2018-06-13T15:20:54.258Z,43.40
2018-06-13T15:23:22.842Z,43.20
2018-06-13T15:25:51.512Z,44.50
2018-06-13T15:28:20.146Z,43.90
2018-06-13T15:30:48.694Z,43.10
2018-06-13T15:33:17.430Z,42.30
2018-06-13T15:35:45.938Z,42.30
2018-06-13T15:40:42.574Z,42.10
2018-06-13T15:43:11.690Z,41.60
2018-06-13T15:45:40.333Z,41.10
2018-06-13T15:48:08.837Z,40.80
2018-06-13T15:50:37.298Z,41.30
2018-06-13T15:53:05.965Z,39.70
2018-06-13T15:55:34.590Z,38.50
2018-06-13T15:58:03.102Z,38.40
2018-06-13T16:00:31.645Z,38.00
2018-06-13T16:03:00.318Z,37.40
2018-06-13T16:05:28.946Z,37.20
2018-06-13T16:07:57.381Z,37.30
2018-06-13T16:10:25.971Z,35.60
2018-06-13T16:12:54.532Z,35.10
2018-06-13T16:15:23.079Z,33.20
2018-06-13T16:17:51.787Z,32.90
2018-06-13T16:20:20.233Z,32.20
2018-06-13T16:22:48.673Z,30.50
2018-06-13T16:25:17.152Z,29.80
2018-06-13T16:27:45.602Z,29.80
2018-06-13T16:30:14.049Z,28.70
2018-06-13T16:32:42.650Z,28.10
2018-06-13T16:35:11.269Z,29.50
2018-06-13T16:37:39.849Z,28.30
2018-06-13T16:40:08.446Z,28.50
2018-06-13T16:45:05.082Z,28.10
2018-06-13T16:47:33.675Z,28.00
2018-06-13T16:50:07.177Z,28.00
2018-06-13T16:52:47.224Z,28.40
2018-06-13T16:55:17.243Z,29.10
2018-06-13T16:57:45.938Z,28.80
2018-06-13T17:00:16.662Z,28.90
2018-06-13T17:02:45.239Z,28.90
2018-06-13T17:05:13.925Z,29.00
2018-06-13T17:07:42.447Z,29.20
2018-06-13T17:10:11.082Z,29.40
2018-06-13T17:12:39.617Z,29.80
2018-06-13T17:15:08.310Z,29.60
2018-06-13T17:17:36.737Z,29.90
2018-06-13T17:20:05.194Z,29.90
2018-06-13T17:22:33.673Z,30.00
2018-06-13T17:25:03.012Z,29.80
2018-06-13T17:27:31.488Z,29.90
2018-06-13T17:30:00.081Z,30.50
2018-06-13T17:32:28.522Z,30.40
2018-06-13T17:34:57.658Z,30.40
2018-06-13T17:37:27.002Z,29.40
2018-06-13T17:42:23.637Z,29.80
2018-06-13T17:44:52.194Z,29.90
2018-06-13T17:47:20.613Z,30.10
2018-06-13T17:49:49.039Z,30.40
2018-06-13T17:52:17.601Z,30.90
2018-06-13T17:54:46.114Z,31.60
2018-06-13T17:57:14.550Z,31.90
2018-06-13T17:59:43.302Z,33.70
2018-06-13T18:02:11.769Z,33.90
2018-06-13T18:04:40.237Z,34.30
2018-06-13T18:07:08.759Z,35.80
2018-06-13T18:09:37.299Z,37.60
2018-06-13T18:12:06.073Z,39.00
2018-06-13T18:14:34.678Z,40.20
2018-06-13T18:17:03.167Z,41.20
2018-06-13T18:19:31.618Z,42.40
2018-06-13T18:22:00.095Z,43.30
2018-06-13T18:24:28.566Z,44.00
2018-06-13T18:26:57.257Z,44.50
2018-06-13T18:29:26.413Z,45.40
2018-06-13T18:31:54.894Z,46.00
2018-06-13T18:34:23.386Z,46.60
2018-06-13T18:36:52.003Z,47.20
2018-06-13T18:39:20.457Z,48.00
2018-06-13T18:44:17.262Z,48.90
2018-06-13T18:49:13.942Z,49.10
2018-06-13T18:51:42.530Z,49.40
2018-06-13T18:54:11.014Z,49.70
2018-06-13T18:56:39.856Z,49.90
2018-06-13T18:59:08.322Z,50.40
2018-06-13T19:01:37.622Z,50.80
2018-06-13T19:04:06.135Z,51.20
2018-06-13T19:06:34.610Z,51.80
2018-06-13T19:09:03.371Z,52.30
2018-06-13T19:11:32.011Z,52.90
2018-06-13T19:14:00.802Z,53.40
2018-06-13T19:16:30.490Z,53.70
2018-06-13T19:18:59.503Z,53.90
2018-06-13T19:21:28.394Z,54.30
2018-06-13T19:23:57.407Z,54.50
2018-06-13T19:26:26.870Z,54.90
2018-06-13T19:28:56.069Z,55.30
2018-06-13T19:31:24.550Z,55.80
2018-06-13T19:33:53.275Z,56.30
2018-06-13T19:36:21.887Z,56.90
2018-06-13T19:38:50.526Z,57.20
2018-06-13T19:41:19.575Z,57.70
2018-06-13T19:43:49.250Z,58.00
2018-06-13T19:46:17.730Z,58.30
2018-06-13T19:48:54.466Z,58.30
2018-06-13T19:51:22.951Z,58.60
2018-06-13T19:56:28.866Z,59.00
2018-06-13T19:58:58.225Z,59.10
2018-06-13T20:01:26.711Z,59.20
2018-06-13T20:04:00.766Z,59.40
2018-06-13T20:06:29.290Z,59.50
2018-06-13T20:08:57.894Z,59.90
2018-06-13T20:11:26.446Z,60.10
2018-06-13T20:14:00.211Z,60.30
2018-06-13T20:16:45.291Z,60.60
2018-06-13T20:19:19.083Z,60.90
2018-06-13T20:21:47.819Z,61.10
2018-06-13T20:24:16.337Z,61.50
2018-06-13T20:28:51.669Z,61.80
2018-06-13T20:33:54.249Z,62.40
2018-06-13T20:36:23.314Z,62.50
2018-06-13T20:38:51.790Z,62.60
2018-06-13T20:41:20.470Z,63.00
2018-06-13T20:43:49.113Z,63.60
2018-06-13T20:46:17.574Z,63.80
2018-06-13T20:48:46.150Z,64.10
2018-06-13T20:51:14.646Z,64.30
2018-06-13T20:53:43.393Z,64.50
2018-06-13T20:56:11.868Z,64.90
2018-06-13T20:58:40.326Z,65.00
2018-06-13T21:01:08.986Z,65.40
2018-06-13T21:03:37.606Z,66.40
2018-06-13T21:06:06.407Z,66.00
2018-06-13T21:08:34.788Z,66.20
2018-06-13T21:11:03.276Z,66.60
2018-06-13T21:13:31.976Z,66.80
2018-06-13T21:16:00.649Z,67.20
2018-06-13T21:18:29.234Z,68.10
2018-06-13T21:20:57.662Z,67.40
2018-06-13T21:23:26.095Z,67.80
2018-06-13T21:25:54.694Z,67.70
2018-06-13T21:28:23.150Z,67.90
2018-06-13T21:30:51.810Z,68.00
2018-06-13T21:33:20.374Z,68.20
2018-06-13T21:35:48.820Z,68.20
2018-06-13T21:38:17.385Z,68.40
2018-06-13T21:40:46.069Z,68.70
2018-06-13T21:45:42.785Z,69.10
2018-06-13T21:48:11.275Z,69.20
2018-06-13T21:50:39.720Z,69.40
2018-06-13T21:53:08.163Z,69.60
2018-06-13T21:55:36.799Z,69.80
2018-06-13T21:58:05.579Z,70.40
2018-06-13T22:00:34.054Z,70.50
2018-06-13T22:03:02.653Z,70.70
2018-06-13T22:05:31.393Z,71.00
2018-06-13T22:10:28.238Z,71.10
2018-06-13T22:12:56.699Z,71.20
2018-06-13T22:15:26.072Z,71.40
2018-06-13T22:17:57.826Z,71.30
2018-06-13T22:20:26.797Z,71.60
2018-06-13T22:22:55.490Z,71.70
2018-06-13T22:25:24.083Z,71.90
2018-06-13T22:27:52.501Z,72.10
2018-06-13T22:30:21.098Z,72.10
2018-06-13T22:32:49.552Z,72.50
2018-06-13T22:35:18.003Z,72.70
2018-06-13T22:37:46.431Z,73.00
2018-06-13T22:40:15.718Z,73.50
2018-06-13T22:42:44.282Z,73.80
2018-06-13T22:45:12.922Z,74.00
2018-06-13T22:47:41.531Z,74.20
2018-06-13T22:50:09.998Z,74.50
2018-06-13T22:52:38.477Z,74.90
2018-06-13T22:55:07.151Z,75.30
2018-06-13T22:57:35.584Z,75.60
2018-06-13T23:00:04.147Z,75.70
2018-06-13T23:02:32.735Z,75.70
2018-06-13T23:05:01.302Z,75.80
2018-06-13T23:07:29.737Z,76.50
2018-06-13T23:09:58.206Z,76.90
2018-06-13T23:12:26.634Z,77.60
2018-06-13T23:14:55.075Z,77.60
2018-06-13T23:17:23.549Z,77.50
2018-06-13T23:19:51.960Z,77.70
2018-06-13T23:22:20.376Z,77.80
2018-06-13T23:24:48.821Z,77.90
2018-06-13T23:27:17.254Z,78.10
2018-06-13T23:29:45.661Z,78.40
2018-06-13T23:32:14.266Z,78.40
2018-06-13T23:37:10.878Z,78.50
2018-06-13T23:39:39.355Z,78.30
2018-06-13T23:42:07.830Z,77.80
2018-06-13T23:44:36.229Z,77.80
2018-06-13T23:47:04.762Z,77.60
2018-06-13T23:49:33.471Z,77.40
2018-06-13T23:52:01.893Z,77.30
2018-06-13T23:54:30.381Z,77.40
2018-06-13T23:56:58.897Z,77.30
2018-06-13T23:59:27.325Z,77.50
